Modesto, CA (95352)

12:35 AM PDT on August 21, 2014 (GMT -0700)
Sherwood Forest | Change Station
CLOSE
Current Station
Personal Weather Station
Location: Modesto, CA
Elevation: 95 ft
Nearby Weather Stations

Elev 95 ft 37.69 °N, 120.99 °W | Updated 4 seconds ago

Clear
Clear
63.7 °F
Feels Like 63.7 °F
N
2.0
Wind Variable Wind from NW
Gusts 4.0 mph

Today
High -- | Low -- °F
--% Chance of Precip.
Yesterday
High -- | Low -- °F
Precip. -- in
6:24 AM 7:48 PM
Waning Crescent, 16% visible
Pressure 29.88 in
Visibility 10.0 miles
Clouds Clear
Dew Point 57 °F
Humidity 79%
Rainfall 0.00 in
Snow Depth Not available.
UV 0 out of 12
Pollen 6.20 out of 12
Ozone Good
PM2.5 Good
Flu Activity Not available.
METAR KMOD 210653Z AUTO 36007KT 10SM CLR 19/13 A2988 RMK AO2 SLP117 T01890133

More Conditions Fewer Conditions

Pressure 29.88 in
Visibility 10.0 miles
Clouds Clear
Dew Point 57 °F
Humidity 79%
Rainfall 0.00 in
Snow Depth Not available.
UV 0 out of 12
Pollen 6.20 out of 12
Ozone Good
PM2.5 Good
Flu Activity Not available.
METAR KMOD 210653Z AUTO 36007KT 10SM CLR 19/13 A2988 RMK AO2 SLP117 T01890133

More Conditions Fewer Conditions

10-Day Weather Forecast

Almanac

Astronomy

Aug. 21, 2014 Rise Set
Actual Time 6:24 AM PDT 7:48 PM PDT
Civil Twilight 5:57 AM PDT 8:15 PM PDT
Nautical Twilight 5:24 AM PDT 8:48 PM PDT
Astronomical Twilight 4:49 AM PDT 9:23 PM PDT
Moon 3:01 AM PDT 5:19 PM PDT
Length of Visible Light 14h 18m
Length of Day
13h 23m
Tomorrow will be 2m 12s shorter.
Waning Crescent, 16% of the Moon is Illuminated
Today
Waning Crescent
Aug 25
New
Sep 2
First Quarter
Sep 8
Full
Sep 15
Last Quarter

Today's Extremes

State Highs State Lows

Community

WunderPhotos

Upload Photos

1,745,858 photos uploaded!

Nearby

Air Quality

  Air Quality AQ Index Pollutant
Yesterday Good
OZONE
Yesterday Good
PM2.5
Current Good
PM2.5
Current Good
OZONE
Wednesday Moderate
OZONE
Thursday Moderate
OZONE
Friday Moderate
OZONE
Saturday Moderate
OZONE
Sunday Moderate
OZONE
Monday Moderate
OZONE

Snow Depth

Station Depth Elevation
Leavitt Lake 1 in 9400 ft
Blue Lakes 0 in 8000 ft
Forestdale Creek 0 in 8029 ft
Leavitt Meadows 1 in 7200 ft
Summit Meadow 1 in 9122 ft

Earthquake Activity

City Distance Mag. Time & Date
King City, California 94 miles 2.7 10:26 PM PDT
2014-08-15
Kettleman City, California 123 miles 2.9 11:32 PM PDT
2014-08-14
King City, California 93 miles 2.9 8:01 PM PDT
2014-08-14
Mariposa, California 58 miles 2.5 4:54 AM PDT
2014-08-14
Minimum magnitude displayed is 2.5.

Coastal Water Temperatures

Place Temperature
No Stations Reporting

Nearby Weather Stations